createdAt,value
2023-09-23T00:01:38.881Z,13.15
2023-09-23T00:04:06.027Z,13.17
2023-09-23T00:06:32.829Z,13.17
2023-09-23T00:09:01.195Z,13.14
2023-09-23T00:11:29.677Z,13.16
2023-09-23T00:13:56.894Z,13.14
2023-09-23T00:16:24.837Z,13.17
2023-09-23T00:18:53.042Z,13.21
2023-09-23T00:21:19.758Z,13.19
2023-09-23T00:23:47.829Z,13.19
2023-09-23T00:26:18.598Z,13.18
2023-09-23T00:28:50.581Z,13.19
2023-09-23T00:31:17.286Z,13.23
2023-09-23T00:33:44.183Z,13.23
2023-09-23T00:36:11.629Z,13.33
2023-09-23T00:38:39.314Z,13.31
2023-09-23T00:41:10.098Z,13.30
2023-09-23T00:43:39.106Z,13.36
2023-09-23T00:46:06.691Z,13.37
2023-09-23T00:48:41.145Z,13.39
2023-09-23T00:51:08.504Z,13.51
2023-09-23T00:53:40.745Z,13.52
2023-09-23T00:56:09.853Z,13.49
2023-09-23T00:58:43.295Z,13.49
2023-09-23T01:01:10.320Z,13.50
2023-09-23T01:03:40.265Z,13.47
2023-09-23T01:06:18.599Z,13.44
2023-09-23T01:08:48.748Z,13.44
2023-09-23T01:11:18.880Z,13.50
2023-09-23T01:13:53.002Z,13.53
2023-09-23T01:16:20.220Z,13.50
2023-09-23T01:18:48.415Z,13.50
2023-09-23T01:21:16.114Z,13.49
2023-09-23T01:23:45.449Z,13.50
2023-09-23T01:26:15.452Z,13.59
2023-09-23T01:28:42.396Z,13.63
2023-09-23T01:31:09.333Z,13.63
2023-09-23T01:33:36.614Z,13.64
2023-09-23T01:36:04.418Z,13.67
2023-09-23T01:38:32.540Z,13.67
2023-09-23T01:41:02.167Z,13.65
2023-09-23T01:43:29.050Z,13.62
2023-09-23T01:46:00.202Z,13.61
2023-09-23T01:48:28.454Z,13.57
2023-09-23T01:50:55.129Z,13.60
2023-09-23T01:53:23.088Z,13.60
2023-09-23T01:55:51.088Z,13.62
2023-09-23T01:58:17.754Z,13.54
2023-09-23T02:00:45.425Z,13.55
2023-09-23T02:03:13.373Z,13.58
2023-09-23T02:05:40.123Z,13.55
2023-09-23T02:08:34.356Z,13.57
2023-09-23T02:11:01.035Z,13.50
2023-09-23T02:13:29.370Z,13.45
2023-09-23T02:15:58.900Z,13.26
2023-09-23T02:18:27.501Z,13.19
2023-09-23T02:20:54.530Z,13.13
2023-09-23T02:23:23.290Z,13.05
2023-09-23T02:25:51.590Z,12.97
2023-09-23T02:28:19.422Z,12.97
2023-09-23T02:30:46.107Z,13.01
2023-09-23T02:34:07.040Z,12.97
2023-09-23T02:36:35.986Z,12.95
2023-09-23T02:39:06.304Z,12.95
2023-09-23T02:41:34.128Z,12.92
2023-09-23T02:44:06.910Z,12.89
2023-09-23T02:46:33.538Z,12.90
2023-09-23T02:49:01.002Z,12.85
2023-09-23T02:51:27.691Z,12.84
2023-09-23T02:53:54.293Z,12.78
2023-09-23T02:56:21.076Z,12.78
2023-09-23T02:58:49.215Z,12.71
2023-09-23T03:01:20.829Z,12.72
2023-09-23T03:03:48.539Z,12.68
2023-09-23T03:06:17.084Z,12.64
2023-09-23T03:08:49.236Z,12.58
2023-09-23T03:11:19.444Z,12.55
2023-09-23T03:13:46.258Z,12.54
2023-09-23T03:16:15.576Z,12.58
2023-09-23T03:19:01.306Z,12.58
2023-09-23T03:21:27.958Z,12.60
2023-09-23T03:23:54.665Z,12.60
2023-09-23T03:26:22.362Z,12.58
2023-09-23T03:28:50.762Z,12.57
2023-09-23T03:31:17.471Z,12.53
2023-09-23T03:33:49.054Z,12.58
2023-09-23T03:36:17.139Z,12.59
2023-09-23T03:38:44.186Z,12.58
2023-09-23T03:41:13.679Z,12.51
2023-09-23T03:43:41.746Z,12.49
2023-09-23T03:46:17.411Z,12.46
2023-09-23T03:48:44.937Z,12.45
2023-09-23T03:51:15.779Z,12.45
2023-09-23T03:53:44.812Z,12.44
2023-09-23T03:56:11.507Z,12.44
2023-09-23T03:58:39.691Z,12.40
2023-09-23T04:01:32.558Z,12.39
2023-09-23T04:04:00.502Z,12.36
2023-09-23T04:06:27.977Z,12.42
2023-09-23T04:08:59.946Z,12.37
2023-09-23T04:11:27.728Z,12.33
2023-09-23T04:13:59.873Z,12.33
2023-09-23T04:16:31.674Z,12.32
2023-09-23T04:18:58.770Z,12.31
2023-09-23T04:21:26.290Z,12.34
2023-09-23T04:23:55.755Z,12.34
2023-09-23T05:01:35.138Z,12.04
2023-09-23T05:04:03.751Z,12.07
2023-09-23T05:06:33.188Z,12.07
2023-09-23T05:09:00.028Z,12.04
2023-09-23T05:11:37.366Z,12.03
2023-09-23T05:14:07.638Z,12.03
2023-09-23T05:26:34.425Z,12.01
2023-09-23T05:29:01.165Z,12.06
2023-09-23T05:31:31.086Z,11.99
2023-09-23T05:33:59.383Z,12.01
2023-09-23T05:36:27.109Z,11.98
2023-09-23T05:42:05.439Z,12.00
2023-09-23T05:44:32.037Z,12.01
2023-09-23T05:47:00.342Z,11.94
2023-09-23T05:49:28.681Z,11.99
2023-09-23T06:07:38.767Z,11.84
2023-09-23T06:10:07.335Z,11.85
2023-09-23T06:18:54.780Z,11.89
2023-09-23T06:21:22.459Z,11.93
2023-09-23T06:23:49.322Z,12.01
2023-09-23T06:26:17.728Z,12.00
2023-09-23T06:31:56.479Z,12.05
2023-09-23T06:34:23.342Z,12.08
2023-09-23T06:36:50.940Z,12.12
2023-09-23T06:39:17.610Z,12.15
2023-09-23T06:41:46.297Z,12.17
2023-09-23T06:44:12.951Z,12.23
2023-09-23T06:46:39.572Z,12.17
2023-09-23T06:52:08.518Z,12.16
2023-09-23T06:54:35.206Z,12.22
2023-09-23T06:57:05.536Z,12.19
2023-09-23T06:59:32.811Z,12.21
2023-09-23T07:02:01.877Z,12.27
2023-09-23T07:04:29.443Z,12.29
2023-09-23T07:06:58.460Z,12.33
2023-09-23T07:09:25.088Z,12.38
2023-09-23T07:11:54.656Z,12.42
2023-09-23T07:14:21.369Z,12.43
2023-09-23T07:16:49.208Z,12.53
2023-09-23T07:19:15.830Z,12.58
2023-09-23T07:24:52.755Z,12.59
2023-09-23T07:27:21.479Z,12.56
2023-09-23T07:29:49.103Z,12.61
2023-09-23T07:32:15.751Z,12.67
2023-09-23T07:34:43.495Z,12.72
2023-09-23T07:37:11.438Z,12.77
2023-09-23T07:39:40.172Z,12.83
2023-09-23T07:42:07.058Z,12.88
2023-09-23T07:44:35.838Z,12.94
2023-09-23T07:47:02.558Z,12.95
2023-09-23T07:49:29.175Z,13.02
2023-09-23T07:51:59.712Z,13.06
2023-09-23T07:54:26.427Z,13.12
2023-09-23T07:56:54.657Z,12.97
2023-09-23T07:59:21.579Z,12.93
2023-09-23T08:01:50.451Z,13.09
2023-09-23T08:04:18.233Z,13.16
2023-09-23T08:06:45.012Z,13.22
2023-09-23T08:09:13.005Z,13.29
2023-09-23T08:12:06.185Z,13.33
2023-09-23T08:14:36.109Z,13.39
2023-09-23T08:17:04.060Z,13.53
2023-09-23T08:19:31.277Z,13.69
2023-09-23T08:22:00.447Z,13.97
2023-09-23T08:24:27.251Z,14.13
2023-09-23T08:26:58.047Z,14.24
2023-09-23T08:29:25.399Z,14.45
2023-09-23T08:31:53.674Z,14.50
2023-09-23T08:34:21.337Z,14.51
2023-09-23T08:36:48.272Z,14.61
2023-09-23T08:39:17.498Z,14.44
2023-09-23T08:41:52.755Z,14.52
2023-09-23T08:44:22.587Z,14.39
2023-09-23T08:46:52.581Z,14.35
2023-09-23T08:49:23.049Z,14.22
2023-09-23T08:51:57.285Z,14.25
2023-09-23T08:54:28.857Z,14.33
2023-09-23T08:56:57.648Z,14.42
2023-09-23T08:59:27.946Z,14.33
2023-09-23T09:01:56.615Z,14.18
2023-09-23T09:04:25.366Z,14.28
2023-09-23T09:06:55.323Z,14.30
2023-09-23T09:09:22.266Z,14.31
2023-09-23T09:11:55.263Z,14.43
2023-09-23T09:14:25.508Z,14.47
2023-09-23T09:16:54.979Z,14.58
2023-09-23T09:19:21.710Z,14.62
2023-09-23T09:21:51.840Z,14.60
2023-09-23T09:24:19.438Z,14.67
2023-09-23T09:26:46.122Z,14.66
2023-09-23T09:29:15.510Z,14.56
2023-09-23T09:31:43.303Z,14.52
2023-09-23T09:34:14.420Z,14.55
2023-09-23T09:36:41.698Z,14.53
2023-09-23T09:39:18.290Z,14.54
2023-09-23T09:41:48.016Z,14.64
2023-09-23T09:44:16.523Z,14.69
2023-09-23T09:46:50.009Z,14.80
2023-09-23T09:49:18.583Z,14.87
2023-09-23T09:51:50.120Z,14.88
2023-09-23T09:54:20.934Z,15.06
2023-09-23T09:56:51.057Z,15.28
2023-09-23T09:59:30.238Z,15.38
2023-09-23T10:02:00.515Z,15.33
2023-09-23T10:04:32.461Z,15.37
2023-09-23T10:07:01.734Z,15.32
2023-09-23T10:09:29.687Z,15.22
2023-09-23T10:11:59.318Z,15.40
2023-09-23T10:14:29.366Z,15.42
2023-09-23T10:17:05.577Z,15.52
2023-09-23T10:19:35.150Z,15.50
2023-09-23T10:22:18.825Z,15.44
2023-09-23T10:24:48.009Z,15.55
2023-09-23T10:27:23.248Z,15.62
2023-09-23T10:29:50.941Z,15.62
2023-09-23T10:32:19.804Z,15.58
2023-09-23T10:34:59.980Z,15.62
2023-09-23T10:37:36.780Z,15.55
2023-09-23T10:40:13.105Z,15.56
2023-09-23T10:42:42.942Z,15.39
2023-09-23T10:45:12.233Z,15.48
2023-09-23T10:47:45.235Z,15.48
2023-09-23T10:50:13.277Z,15.58
2023-09-23T10:52:42.260Z,15.60
2023-09-23T10:55:10.803Z,15.81
2023-09-23T10:57:38.215Z,15.84
2023-09-23T11:00:15.300Z,15.95
2023-09-23T11:02:45.614Z,16.04
2023-09-23T11:05:13.060Z,16.13
2023-09-23T11:07:43.376Z,16.27
2023-09-23T11:10:14.990Z,16.42
2023-09-23T11:12:46.120Z,16.72
2023-09-23T11:15:14.742Z,16.80
2023-09-23T11:17:42.813Z,16.89
2023-09-23T11:20:11.768Z,17.07
2023-09-23T11:22:44.400Z,17.14
2023-09-23T11:25:11.026Z,17.00
2023-09-23T11:27:41.465Z,16.80
2023-09-23T11:30:10.750Z,16.93
2023-09-23T11:32:38.811Z,17.00
2023-09-23T11:35:07.368Z,16.96
2023-09-23T11:37:35.710Z,16.79
2023-09-23T11:40:04.559Z,16.46
2023-09-23T11:42:32.545Z,16.68
2023-09-23T11:44:59.183Z,16.57
2023-09-23T11:47:27.720Z,16.38
2023-09-23T11:49:54.416Z,16.40
2023-09-23T11:52:23.164Z,16.47
2023-09-23T11:54:50.064Z,16.38
2023-09-23T11:57:18.543Z,16.32
2023-09-23T11:59:45.256Z,16.18
2023-09-23T12:02:14.626Z,16.21
2023-09-23T12:04:41.849Z,16.29
2023-09-23T12:07:08.882Z,16.25
2023-09-23T12:09:41.035Z,16.12
2023-09-23T12:12:13.569Z,16.05
2023-09-23T12:14:43.877Z,16.12
2023-09-23T12:17:16.160Z,16.38
2023-09-23T12:19:46.199Z,16.63
2023-09-23T12:22:17.614Z,16.87
2023-09-23T12:24:45.457Z,16.83
2023-09-23T12:27:13.925Z,16.85
2023-09-23T12:29:40.583Z,16.75
2023-09-23T12:32:08.605Z,16.62
2023-09-23T12:34:36.260Z,16.53
2023-09-23T12:37:05.345Z,16.31
2023-09-23T12:39:31.928Z,16.31
2023-09-23T12:42:00.055Z,16.26
2023-09-23T12:44:26.907Z,16.21
2023-09-23T12:46:55.638Z,16.24
2023-09-23T12:49:22.320Z,16.37
2023-09-23T12:51:50.632Z,16.65
2023-09-23T12:54:17.319Z,16.90
2023-09-23T12:56:45.965Z,16.92
2023-09-23T12:59:12.657Z,16.92
2023-09-23T13:01:39.354Z,17.02
2023-09-23T13:04:08.858Z,17.07
2023-09-23T13:06:36.413Z,17.15
2023-09-23T13:09:04.572Z,17.30
2023-09-23T13:11:33.339Z,17.43
2023-09-23T13:13:59.996Z,17.43
2023-09-23T13:16:26.645Z,17.11
2023-09-23T13:18:54.798Z,17.03
2023-09-23T13:21:21.452Z,16.94
2023-09-23T13:23:50.941Z,17.09
2023-09-23T13:26:18.447Z,17.00
2023-09-23T13:28:46.730Z,16.97
2023-09-23T13:31:13.707Z,17.06
2023-09-23T13:33:40.475Z,17.18
2023-09-23T13:36:07.303Z,17.19
2023-09-23T13:38:33.942Z,17.30
2023-09-23T13:41:02.475Z,17.13
2023-09-23T13:43:30.643Z,16.92
2023-09-23T13:45:57.506Z,16.78
2023-09-23T13:48:25.709Z,16.64
2023-09-23T13:50:52.444Z,16.81
2023-09-23T13:53:21.180Z,16.90
2023-09-23T13:55:48.104Z,17.02
2023-09-23T13:58:17.621Z,16.92
2023-09-23T14:00:44.733Z,16.85
2023-09-23T14:03:12.588Z,16.85
2023-09-23T14:05:39.492Z,16.69
2023-09-23T14:08:07.683Z,16.51
2023-09-23T14:10:34.899Z,16.74
2023-09-23T14:13:05.140Z,17.06
2023-09-23T14:15:31.858Z,17.43
2023-09-23T14:18:00.150Z,17.84
2023-09-23T14:20:28.023Z,18.49
2023-09-23T14:22:56.776Z,18.79
2023-09-23T14:25:24.275Z,19.32
2023-09-23T14:28:17.611Z,19.61
2023-09-23T14:30:44.878Z,19.78
2023-09-23T14:33:12.713Z,19.36
2023-09-23T14:35:40.055Z,19.40
2023-09-23T14:38:08.297Z,18.43
2023-09-23T14:40:35.719Z,18.11
2023-09-23T14:43:03.801Z,18.08
2023-09-23T14:45:30.423Z,17.96
2023-09-23T14:47:58.696Z,17.62
2023-09-23T14:50:25.862Z,17.53
2023-09-23T14:52:54.411Z,17.34
2023-09-23T14:55:22.524Z,17.18
2023-09-23T14:57:50.702Z,17.05
2023-09-23T15:00:18.726Z,16.93
2023-09-23T15:02:47.095Z,16.80
2023-09-23T15:05:13.998Z,16.78
2023-09-23T15:07:40.942Z,16.77
2023-09-23T15:10:08.864Z,16.71
2023-09-23T15:12:36.723Z,16.76
2023-09-23T15:15:04.936Z,16.68
2023-09-23T15:17:31.999Z,16.68
2023-09-23T15:19:58.686Z,16.74
2023-09-23T15:22:25.428Z,16.71
2023-09-23T15:24:53.776Z,16.67
2023-09-23T15:27:23.509Z,16.69
2023-09-23T15:29:50.516Z,16.64
2023-09-23T15:32:17.276Z,16.49
2023-09-23T15:34:44.888Z,16.48
2023-09-23T15:37:12.940Z,16.53
2023-09-23T15:39:42.080Z,16.55
2023-09-23T15:42:08.981Z,16.50
2023-09-23T15:44:35.757Z,16.51
2023-09-23T15:47:02.674Z,16.45
2023-09-23T15:49:42.288Z,16.38
2023-09-23T15:52:11.917Z,16.45
2023-09-23T15:54:39.881Z,16.43
2023-09-23T15:57:06.576Z,16.32
2023-09-23T15:59:33.293Z,16.29
2023-09-23T16:02:01.685Z,16.23
2023-09-23T16:04:28.594Z,16.22
2023-09-23T16:06:57.842Z,16.26
2023-09-23T16:09:24.797Z,16.33
2023-09-23T16:11:52.058Z,16.23
2023-09-23T16:14:19.340Z,16.25
2023-09-23T16:16:47.183Z,16.16
2023-09-23T16:19:14.426Z,16.20
2023-09-23T16:21:41.179Z,16.12
2023-09-23T16:24:08.294Z,16.14
2023-09-23T16:26:37.540Z,16.16
2023-09-23T16:29:05.742Z,16.10
2023-09-23T16:31:32.644Z,16.08
2023-09-23T16:34:00.753Z,16.05
2023-09-23T16:36:28.542Z,16.13
2023-09-23T16:38:55.656Z,16.09
2023-09-23T16:41:22.456Z,16.08
2023-09-23T16:43:50.929Z,15.99
2023-09-23T16:46:17.649Z,15.96
2023-09-23T16:48:46.910Z,15.93
2023-09-23T16:51:13.893Z,15.92
2023-09-23T16:53:41.800Z,15.86
2023-09-23T16:56:08.556Z,15.87
2023-09-23T16:58:36.858Z,15.77
2023-09-23T17:01:04.235Z,15.83
2023-09-23T17:03:33.506Z,15.86
2023-09-23T17:06:00.372Z,15.79
2023-09-23T17:08:29.237Z,15.76
2023-09-23T17:10:56.624Z,15.76
2023-09-23T17:13:24.753Z,15.61
2023-09-23T17:15:55.089Z,15.71
2023-09-23T17:18:25.899Z,15.73
2023-09-23T17:20:53.102Z,15.69
2023-09-23T17:23:19.855Z,15.70
2023-09-23T17:25:52.160Z,15.71
2023-09-23T17:28:18.845Z,15.70
2023-09-23T17:30:46.517Z,15.72
2023-09-23T17:33:16.859Z,15.67
2023-09-23T17:35:44.595Z,15.59
2023-09-23T17:38:12.875Z,15.55
2023-09-23T17:40:47.511Z,15.52
2023-09-23T17:43:16.931Z,15.50
2023-09-23T17:45:43.552Z,15.50
2023-09-23T17:48:11.995Z,15.51
2023-09-23T17:50:39.209Z,15.45
2023-09-23T17:53:08.018Z,15.43
2023-09-23T17:55:34.821Z,15.39
2023-09-23T17:58:03.508Z,15.32
2023-09-23T18:00:30.955Z,15.31
2023-09-23T18:02:58.970Z,15.24
2023-09-23T18:05:25.905Z,15.19
2023-09-23T18:07:53.673Z,15.16
2023-09-23T18:10:20.319Z,15.19
2023-09-23T18:12:50.098Z,15.15
2023-09-23T18:15:16.789Z,15.16
2023-09-23T18:17:44.843Z,15.19
2023-09-23T18:20:12.886Z,15.10
2023-09-23T18:22:41.149Z,15.05
2023-09-23T18:25:08.339Z,15.10
2023-09-23T18:27:36.791Z,15.11
2023-09-23T18:30:05.059Z,15.09
2023-09-23T18:32:33.949Z,15.03
2023-09-23T18:35:00.674Z,15.05
2023-09-23T18:37:29.772Z,15.01
2023-09-23T18:39:59.209Z,15.00
2023-09-23T18:42:27.770Z,15.02
2023-09-23T18:44:58.385Z,15.00
2023-09-23T18:47:26.854Z,14.97
2023-09-23T18:49:54.847Z,14.96
2023-09-23T18:52:22.787Z,15.00
2023-09-23T18:54:56.030Z,14.97
2023-09-23T18:57:24.851Z,14.94
2023-09-23T18:59:52.311Z,14.95
2023-09-23T19:02:21.044Z,14.96
2023-09-23T19:04:51.113Z,14.95
2023-09-23T19:07:19.026Z,14.93
2023-09-23T19:09:46.667Z,14.90
2023-09-23T19:12:14.744Z,14.91
2023-09-23T19:14:41.535Z,14.89
2023-09-23T19:17:34.178Z,14.83
2023-09-23T19:20:01.127Z,14.84
2023-09-23T19:22:29.774Z,14.84
2023-09-23T19:24:56.494Z,14.85
2023-09-23T19:27:25.641Z,14.86
2023-09-23T19:29:52.478Z,14.80
2023-09-23T19:32:20.809Z,14.79
2023-09-23T19:34:47.472Z,14.80
2023-09-23T19:37:15.095Z,14.79
2023-09-23T19:39:43.102Z,14.72
2023-09-23T19:42:10.811Z,14.70
2023-09-23T19:44:38.208Z,14.70
2023-09-23T19:47:07.519Z,14.65
2023-09-23T19:49:35.357Z,14.61
2023-09-23T19:52:04.819Z,14.60
2023-09-23T19:54:35.049Z,14.59
2023-09-23T19:57:05.819Z,14.57
2023-09-23T19:59:33.529Z,14.57
2023-09-23T20:02:01.955Z,14.55
2023-09-23T20:04:29.089Z,14.53
2023-09-23T20:06:59.780Z,14.51
2023-09-23T20:09:26.776Z,14.50
2023-09-23T20:11:54.871Z,14.46
2023-09-23T20:14:22.584Z,14.51
2023-09-23T20:16:52.819Z,14.46
2023-09-23T20:19:19.719Z,14.45
2023-09-23T20:21:55.485Z,14.45
2023-09-23T20:24:22.127Z,14.37
2023-09-23T20:26:53.939Z,14.36
2023-09-23T20:29:22.835Z,14.33
2023-09-23T20:31:51.168Z,14.31
2023-09-23T20:34:19.164Z,14.27
2023-09-23T20:36:48.866Z,14.22
2023-09-23T20:39:15.939Z,14.17
2023-09-23T20:41:45.052Z,14.10
2023-09-23T20:44:14.906Z,14.08
2023-09-23T20:46:42.771Z,14.02
2023-09-23T20:49:14.117Z,13.95
2023-09-23T20:51:41.212Z,13.88
2023-09-23T20:54:09.893Z,13.85
2023-09-23T20:56:36.872Z,13.82
2023-09-23T20:59:07.826Z,13.76
2023-09-23T21:01:36.008Z,13.71
2023-09-23T21:04:07.986Z,13.67
2023-09-23T21:06:37.672Z,13.63
2023-09-23T21:09:04.856Z,13.60
2023-09-23T21:11:33.910Z,13.57
2023-09-23T21:14:01.591Z,13.53
2023-09-23T21:16:28.372Z,13.51
2023-09-23T21:18:55.129Z,13.50
2023-09-23T21:21:22.001Z,13.47
2023-09-23T21:23:50.002Z,13.46
2023-09-23T21:26:19.212Z,13.42
2023-09-23T21:28:48.898Z,13.37
2023-09-23T21:31:18.988Z,13.33
2023-09-23T21:33:46.002Z,13.29
2023-09-23T21:36:13.591Z,13.23
2023-09-23T21:38:40.655Z,13.19
2023-09-23T21:41:07.288Z,13.14
2023-09-23T21:43:33.931Z,13.06
2023-09-23T21:46:00.694Z,13.02
2023-09-23T21:48:27.627Z,12.98
2023-09-23T21:51:01.878Z,12.94
2023-09-23T21:53:28.925Z,12.92
2023-09-23T21:55:59.746Z,12.87
2023-09-23T21:58:26.649Z,12.88
2023-09-23T22:00:57.831Z,12.82
2023-09-23T22:03:24.730Z,12.81
2023-09-23T22:05:51.758Z,12.76
2023-09-23T22:08:20.049Z,12.76
2023-09-23T22:10:50.024Z,12.74
2023-09-23T22:13:19.192Z,12.71
2023-09-23T22:15:50.002Z,12.70
2023-09-23T22:18:16.893Z,12.64
2023-09-23T22:20:43.761Z,12.64
2023-09-23T22:23:10.611Z,12.61
2023-09-23T22:25:37.473Z,12.59
2023-09-23T22:28:06.303Z,12.57
2023-09-23T22:30:32.908Z,12.59
2023-09-23T22:33:00.557Z,12.60
2023-09-23T22:35:30.144Z,12.56
2023-09-23T22:37:59.997Z,12.54
2023-09-23T22:40:27.899Z,12.54
2023-09-23T22:42:58.332Z,12.57
2023-09-23T22:48:02.641Z,12.57
2023-09-23T22:50:29.583Z,12.50
2023-09-23T22:53:00.975Z,12.48
2023-09-23T22:55:28.553Z,12.45
2023-09-23T22:57:55.452Z,12.44
2023-09-23T23:00:22.760Z,12.43
2023-09-23T23:02:50.086Z,12.39
2023-09-23T23:05:17.610Z,12.34
2023-09-23T23:07:51.539Z,12.29
2023-09-23T23:10:19.228Z,12.25
2023-09-23T23:12:48.096Z,12.21
2023-09-23T23:15:16.827Z,12.19
2023-09-23T23:17:45.925Z,12.20
2023-09-23T23:20:24.411Z,12.21
2023-09-23T23:22:56.057Z,12.19
2023-09-23T23:25:24.668Z,12.18
2023-09-23T23:27:51.969Z,12.17
2023-09-23T23:30:19.320Z,12.17
2023-09-23T23:32:53.327Z,12.19
2023-09-23T23:35:22.844Z,12.24
2023-09-23T23:37:49.812Z,12.19
2023-09-23T23:40:22.430Z,12.19
2023-09-23T23:42:50.359Z,12.17
2023-09-23T23:45:19.564Z,12.15
2023-09-23T23:47:46.506Z,12.14
2023-09-23T23:50:13.439Z,12.10
2023-09-23T23:52:40.008Z,12.16
2023-09-23T23:55:07.068Z,12.14
2023-09-23T23:57:34.846Z,12.11
